Time;durP1;ratioP1;P1;durP2;ratioP2;P2;SDS_P1;SDS_P2;PMS_P1;PMS_P2;Temp;Humidity;BMP_temperature;BMP_pressure;BME280_temperature;BME280_humidity;BME280_pressure;Samples;Min_cycle;Max_cycle;Signal;HPM_P1;HPM_P2
2021/09/10 00:00:43;;;;;;;21.87;16.57;;;;;;;14.71;73.70;100781.38;1706915;82;26510;-78
2021/09/10 00:03:10;;;;;;;25.75;16.27;;;;;;;14.69;73.92;100788.86;1723702;82;26500;-78
2021/09/10 00:05:37;;;;;;;24.72;16.50;;;;;;;14.66;73.83;100782.52;1698094;82;26527;-78
2021/09/10 00:08:04;;;;;;;23.70;16.45;;;;;;;14.64;73.82;100777.86;1680978;82;25878;-78
2021/09/10 00:10:31;;;;;;;20.85;15.60;;;;;;;14.62;73.87;100784.81;1727120;82;27606;-78
2021/09/10 00:12:59;;;;;;;22.05;15.43;;;;;;;14.61;74.00;100780.95;1699195;82;25349;-78
2021/09/10 00:15:27;;;;;;;17.87;14.23;;;;;;;14.59;73.97;100771.73;1687690;82;25899;-78
2021/09/10 00:17:55;;;;;;;24.25;15.48;;;;;;;14.57;73.94;100775.16;1704394;82;25817;-78
2021/09/10 00:20:22;;;;;;;21.57;16.05;;;;;;;14.55;73.97;100774.55;1731333;82;25887;-78
2021/09/10 00:22:49;;;;;;;22.52;15.30;;;;;;;14.54;74.09;100773.41;1703776;82;27392;-78
2021/09/10 00:25:16;;;;;;;21.55;16.27;;;;;;;14.52;74.11;100772.80;1655655;82;26040;-78
2021/09/10 00:27:43;;;;;;;26.20;16.55;;;;;;;14.49;74.11;100772.69;1698348;82;25858;-78
2021/09/10 00:30:12;;;;;;;24.10;16.60;;;;;;;14.48;74.17;100775.56;1731677;82;26558;-79
2021/09/10 00:32:39;;;;;;;22.62;15.83;;;;;;;14.47;74.25;100773.92;1704008;82;25880;-78
2021/09/10 00:35:07;;;;;;;21.27;15.10;;;;;;;14.45;74.26;100771.95;1652052;83;27543;-78
2021/09/10 00:37:34;;;;;;;21.40;15.35;;;;;;;14.42;74.24;100772.36;1702706;82;25865;-78
2021/09/10 00:40:02;;;;;;;22.65;15.68;;;;;;;14.39;74.21;100769.55;1670330;82;25917;-78
2021/09/10 00:42:29;;;;;;;20.00;15.60;;;;;;;14.38;74.24;100769.77;1697423;82;26297;-78
2021/09/10 00:44:56;;;;;;;25.55;16.90;;;;;;;14.33;74.31;100761.47;1687184;84;25833;-78
2021/09/10 00:47:23;;;;;;;21.48;15.13;;;;;;;14.30;74.39;100764.08;1719493;81;28361;-77
2021/09/10 00:49:51;;;;;;;18.57;14.58;;;;;;;14.26;74.28;100758.77;1714495;82;26610;-78
2021/09/10 00:52:19;;;;;;;25.32;15.90;;;;;;;14.24;74.41;100766.20;1722654;81;25867;-78
2021/09/10 00:54:46;;;;;;;19.37;14.87;;;;;;;14.20;74.29;100766.84;1637268;82;25861;-78
2021/09/10 00:57:14;;;;;;;24.60;16.42;;;;;;;14.15;74.37;100763.92;1677995;84;25825;-78
2021/09/10 00:59:41;;;;;;;21.55;15.18;;;;;;;14.12;74.54;100761.63;1702520;82;28768;-78
2021/09/10 01:02:08;;;;;;;21.97;15.32;;;;;;;14.07;74.62;100763.59;1658117;82;25934;-78
2021/09/10 01:04:36;;;;;;;23.73;16.85;;;;;;;14.03;74.69;100765.58;1628582;83;26348;-78
2021/09/10 01:07:03;;;;;;;21.48;16.82;;;;;;;13.98;74.82;100768.05;1673886;83;25884;-78
2021/09/10 01:09:31;;;;;;;21.37;16.05;;;;;;;13.96;75.06;100763.38;1692870;83;25869;-78
2021/09/10 01:11:59;;;;;;;24.85;16.60;;;;;;;13.92;75.36;100763.78;1687622;82;27428;-78
2021/09/10 01:14:27;;;;;;;21.65;13.95;;;;;;;13.90;75.59;100763.16;1638115;83;25963;-78
2021/09/10 01:16:55;;;;;;;20.70;14.43;;;;;;;13.89;75.36;100767.41;1720064;82;25351;-78
2021/09/10 01:19:27;;;;;;;20.82;15.15;;;;;;;13.82;75.12;100756.63;1688466;83;26527;-78
2021/09/10 01:22:03;;;;;;;24.02;16.95;;;;;;;13.80;75.08;100764.58;1701961;83;26538;-78
2021/09/10 01:24:37;;;;;;;19.75;15.13;;;;;;;13.77;74.96;100766.36;1704850;82;26506;-78
2021/09/10 01:27:06;;;;;;;22.65;15.30;;;;;;;13.73;75.11;100763.73;1644489;85;25944;-78
2021/09/10 01:29:35;;;;;;;22.60;16.15;;;;;;;13.71;75.24;100760.41;1699763;82;26424;-78
2021/09/10 01:32:04;;;;;;;19.32;14.53;;;;;;;13.69;75.39;100759.78;1706299;82;25752;-78
2021/09/10 01:34:31;;;;;;;22.35;15.63;;;;;;;13.66;75.30;100759.70;1685999;83;26585;-78
2021/09/10 01:36:58;;;;;;;24.07;15.93;;;;;;;13.64;75.30;100761.73;1706006;82;27555;-78
2021/09/10 01:39:25;;;;;;;24.65;17.23;;;;;;;13.62;75.39;100760.30;1722927;82;26551;-78
2021/09/10 01:41:52;;;;;;;23.65;15.70;;;;;;;13.59;75.40;100762.87;1677199;82;26601;-78
2021/09/10 01:44:19;;;;;;;23.60;15.63;;;;;;;13.59;75.40;100764.73;1692344;82;25841;-78
2021/09/10 01:46:46;;;;;;;21.17;15.30;;;;;;;13.57;75.32;100760.91;1696638;82;25873;-79
2021/09/10 01:49:14;;;;;;;19.60;14.93;;;;;;;13.57;75.27;100762.25;1730784;81;27536;-78
2021/09/10 01:51:41;;;;;;;22.17;15.90;;;;;;;13.54;75.14;100757.26;1692024;82;26393;-78
2021/09/10 01:54:08;;;;;;;19.92;14.55;;;;;;;13.53;75.38;100750.75;1696610;82;25766;-78
2021/09/10 01:56:35;;;;;;;21.97;14.70;;;;;;;13.51;75.29;100750.13;1703389;82;26626;-79
2021/09/10 01:59:02;;;;;;;21.73;13.65;;;;;;;13.48;75.17;100751.85;1731419;82;26502;-78
2021/09/10 02:01:34;;;;;;;18.90;13.85;;;;;;;13.45;75.14;100760.34;1700966;82;27181;-78
2021/09/10 02:04:01;;;;;;;20.00;13.50;;;;;;;13.43;75.27;100751.11;1658068;81;25818;-78
2021/09/10 02:06:28;;;;;;;23.02;13.83;;;;;;;13.42;75.35;100758.88;1699839;82;25866;-78
2021/09/10 02:08:55;;;;;;;20.75;14.35;;;;;;;13.39;75.22;100757.93;1728048;82;25909;-78
2021/09/10 02:11:22;;;;;;;17.17;13.20;;;;;;;13.38;75.19;100758.14;1703254;82;26564;-78
2021/09/10 02:13:49;;;;;;;18.40;12.50;;;;;;;13.36;75.17;100756.17;1705603;81;28125;-78
2021/09/10 02:16:16;;;;;;;20.48;13.58;;;;;;;13.32;75.09;100759.78;1728279;82;25849;-77
2021/09/10 02:18:43;;;;;;;20.20;14.23;;;;;;;13.31;75.23;100755.92;1700327;82;26610;-78
2021/09/10 02:21:10;;;;;;;20.80;14.30;;;;;;;13.32;75.31;100753.56;1697733;82;25829;-78
2021/09/10 02:23:37;;;;;;;20.27;13.60;;;;;;;13.31;75.33;100752.73;1704924;82;25786;-78
2021/09/10 02:26:04;;;;;;;20.65;14.28;;;;;;;13.29;75.30;100753.95;1702444;82;27574;-78
2021/09/10 02:28:31;;;;;;;19.50;13.32;;;;;;;13.25;75.36;100753.53;1702370;82;26533;-78
2021/09/10 02:30:58;;;;;;;19.95;14.18;;;;;;;13.24;75.43;100755.09;1693398;82;26627;-78
2021/09/10 02:33:27;;;;;;;26.87;14.85;;;;;;;13.19;75.48;100755.69;1680092;82;25853;-78
2021/09/10 02:35:56;;;;;;;19.60;13.60;;;;;;;13.17;75.42;100754.22;1727180;82;25747;-78
2021/09/10 02:38:24;;;;;;;21.90;15.18;;;;;;;13.12;75.51;100756.16;1704506;82;27595;-78
2021/09/10 02:40:51;;;;;;;23.67;16.07;;;;;;;13.06;75.51;100750.23;1651631;83;25946;-78
2021/09/10 02:43:19;;;;;;;21.57;15.48;;;;;;;13.03;75.52;100755.97;1679619;82;26441;-78
2021/09/10 02:45:47;;;;;;;24.92;15.88;;;;;;;12.99;75.47;100754.20;1731467;81;26589;-78
2021/09/10 02:48:14;;;;;;;21.93;14.87;;;;;;;12.93;75.32;100747.44;1705687;82;25977;-78
2021/09/10 02:50:41;;;;;;;22.55;15.10;;;;;;;12.88;75.31;100745.84;1692848;82;27449;-78
2021/09/10 02:53:09;;;;;;;18.25;13.20;;;;;;;12.86;75.31;100747.91;1660040;81;25745;-79
2021/09/10 02:55:36;;;;;;;21.10;14.45;;;;;;;12.83;75.42;100743.75;1727732;82;25821;-78
2021/09/10 02:58:03;;;;;;;21.50;14.10;;;;;;;12.81;75.47;100745.00;1730041;82;26655;-78
2021/09/10 03:00:31;;;;;;;22.32;15.00;;;;;;;12.76;75.46;100740.72;1659948;82;26402;-78
2021/09/10 03:02:58;;;;;;;20.08;14.35;;;;;;;12.72;75.34;100747.52;1699339;82;26598;-78
2021/09/10 03:05:26;;;;;;;19.25;15.08;;;;;;;12.70;75.45;100742.86;1731611;81;25351;-78
2021/09/10 03:07:53;;;;;;;23.32;15.68;;;;;;;12.67;75.51;100741.39;1731558;82;25788;-78
2021/09/10 03:10:20;;;;;;;22.27;14.68;;;;;;;12.62;75.46;100745.16;1695704;82;26940;-78
2021/09/10 03:12:47;;;;;;;22.93;15.35;;;;;;;12.57;75.39;100741.42;1674411;83;25893;-78
2021/09/10 03:15:14;;;;;;;19.75;14.63;;;;;;;12.54;75.46;100747.17;1731127;81;27492;-78
2021/09/10 03:17:42;;;;;;;21.57;14.87;;;;;;;12.51;75.62;100748.39;1727532;82;25852;-78
2021/09/10 03:20:11;;;;;;;22.40;15.10;;;;;;;12.45;75.47;100741.63;1684140;82;26419;-78
2021/09/10 03:22:38;;;;;;;19.23;14.00;;;;;;;12.38;75.56;100742.95;1712415;82;25885;-78
2021/09/10 03:25:07;;;;;;;19.20;13.53;;;;;;;12.32;75.32;100747.72;1731260;81;26483;-78
2021/09/10 03:27:35;;;;;;;20.37;13.93;;;;;;;12.23;75.49;100742.20;1722527;80;27439;-78
2021/09/10 03:30:05;;;;;;;20.52;15.08;;;;;;;12.17;75.45;100751.00;1720144;80;25733;-78
2021/09/10 03:32:32;;;;;;;21.50;13.65;;;;;;;12.12;75.46;100749.42;1752396;80;26004;-79
2021/09/10 03:34:59;;;;;;;22.75;14.33;;;;;;;12.10;75.39;100744.77;1751730;79;26555;-78
2021/09/10 03:37:26;;;;;;;21.27;15.15;;;;;;;12.05;75.48;100748.53;1755257;80;26302;-78
2021/09/10 03:39:53;;;;;;;21.37;13.60;;;;;;;12.01;75.57;100747.25;1740095;80;26988;-78
2021/09/10 03:42:20;;;;;;;20.60;14.33;;;;;;;11.96;75.53;100744.30;1724252;80;26025;-78
2021/09/10 03:44:47;;;;;;;19.85;14.53;;;;;;;11.90;75.63;100749.94;1768444;79;25812;-78
2021/09/10 03:47:14;;;;;;;24.72;14.80;;;;;;;11.87;75.64;100753.00;1761287;80;26595;-78
2021/09/10 03:49:41;;;;;;;22.00;15.60;;;;;;;11.82;75.57;100746.05;1715636;80;25735;-78
2021/09/10 03:52:08;;;;;;;22.55;16.07;;;;;;;11.76;75.52;100748.66;1758702;80;28757;-78
2021/09/10 03:54:35;;;;;;;21.25;15.43;;;;;;;11.73;75.76;100740.48;1761354;79;25777;-78
2021/09/10 03:57:03;;;;;;;22.50;15.08;;;;;;;11.72;75.97;100744.16;1763982;80;25744;-77
2021/09/10 03:59:30;;;;;;;24.23;17.15;;;;;;;11.71;76.16;100746.55;1687242;80;27115;-78
2021/09/10 04:01:57;;;;;;;23.98;16.55;;;;;;;11.71;76.41;100748.39;1715112;80;25837;-78
2021/09/10 04:04:24;;;;;;;23.95;15.32;;;;;;;11.71;76.42;100748.39;1760596;79;28125;-78
2021/09/10 04:06:52;;;;;;;27.00;16.50;;;;;;;11.71;76.56;100752.41;1760300;80;25560;-78
2021/09/10 04:09:20;;;;;;;28.35;17.07;;;;;;;11.67;76.63;100749.30;1726070;81;26019;-78
2021/09/10 04:11:47;;;;;;;25.90;17.60;;;;;;;11.66;76.56;100752.95;1755645;80;25869;-78
2021/09/10 04:14:15;;;;;;;27.45;17.37;;;;;;;11.65;76.48;100748.63;1749093;80;25913;-78
2021/09/10 04:16:42;;;;;;;28.47;17.95;;;;;;;11.68;76.66;100746.07;1750648;80;27463;-78
2021/09/10 04:19:09;;;;;;;33.95;20.27;;;;;;;11.70;77.04;100742.72;1676379;80;25349;-78
2021/09/10 04:21:37;;;;;;;30.12;18.75;;;;;;;11.71;77.33;100745.20;1708162;80;26542;-78
2021/09/10 04:24:04;;;;;;;30.85;17.85;;;;;;;11.71;77.27;100745.70;1735903;80;25818;-78
2021/09/10 04:26:31;;;;;;;25.80;16.57;;;;;;;11.67;77.13;100738.56;1760714;80;25872;-78
2021/09/10 04:28:58;;;;;;;24.00;16.17;;;;;;;11.62;76.97;100741.78;1710326;80;28113;-78
2021/09/10 04:31:25;;;;;;;28.15;16.75;;;;;;;11.62;77.10;100739.09;1753139;80;25384;-78
2021/09/10 04:33:52;;;;;;;23.07;16.55;;;;;;;11.62;77.33;100740.44;1762258;79;25815;-78
2021/09/10 04:36:19;;;;;;;26.15;16.23;;;;;;;11.63;77.53;100740.73;1759957;80;25769;-78
2021/09/10 04:38:46;;;;;;;22.55;15.53;;;;;;;11.63;77.39;100742.08;1707210;80;26127;-78
2021/09/10 04:41:13;;;;;;;27.22;15.70;;;;;;;11.63;77.38;100739.39;1726413;81;27552;-78
2021/09/10 04:43:40;;;;;;;24.18;15.83;;;;;;;11.66;77.38;100739.53;1740382;81;26456;-78
2021/09/10 04:46:07;;;;;;;21.90;14.85;;;;;;;11.68;77.66;100739.36;1693904;81;25739;-78
2021/09/10 04:48:34;;;;;;;23.40;15.10;;;;;;;11.70;77.96;100744.06;1714928;82;26524;-78
2021/09/10 04:51:01;;;;;;;24.10;15.68;;;;;;;11.72;77.89;100744.70;1702202;81;25902;-78
2021/09/10 04:53:28;;;;;;;21.50;13.83;;;;;;;11.74;77.83;100746.14;1743683;81;27405;-78
2021/09/10 04:55:55;;;;;;;20.45;14.87;;;;;;;11.77;77.90;100745.78;1745189;81;26489;-78
2021/09/10 04:58:23;;;;;;;19.92;14.33;;;;;;;11.81;77.89;100747.05;1678472;81;26477;-78
2021/09/10 05:00:50;;;;;;;24.37;15.55;;;;;;;11.83;77.88;100742.33;1700664;81;25837;-78
2021/09/10 05:03:17;;;;;;;22.20;14.80;;;;;;;11.85;78.27;100744.30;1717214;81;25766;-78
2021/09/10 05:05:44;;;;;;;22.22;15.28;;;;;;;11.88;78.70;100741.75;1750598;80;27488;-80
2021/09/10 05:08:11;;;;;;;20.70;15.58;;;;;;;11.89;78.68;100748.27;1718353;81;25806;-80
2021/09/10 05:10:38;;;;;;;23.45;14.83;;;;;;;11.91;78.97;100750.25;1705164;81;26419;-80
2021/09/10 05:13:05;;;;;;;26.62;13.88;;;;;;;11.91;78.94;100752.13;1749871;81;26409;-80
2021/09/10 05:15:33;;;;;;;23.07;14.90;;;;;;;11.94;78.87;100749.03;1747011;81;25688;-80
2021/09/10 05:18:00;;;;;;;20.82;13.55;;;;;;;11.98;79.36;100749.80;1710527;82;28080;-80
2021/09/10 05:20:27;;;;;;;23.40;15.40;;;;;;;12.06;79.72;100752.35;1719039;82;25341;-80
2021/09/10 05:22:54;;;;;;;24.77;16.48;;;;;;;12.16;80.13;100748.02;1748075;81;25924;-80
2021/09/10 05:25:23;;;;;;;21.95;15.35;;;;;;;12.26;80.35;100751.19;1700292;81;25835;-80
2021/09/10 05:27:51;;;;;;;23.55;15.32;;;;;;;12.37;80.65;100761.41;1704186;82;25343;-80
2021/09/10 05:30:18;;;;;;;21.85;15.23;;;;;;;12.48;80.44;100764.08;1727811;81;27532;-80
2021/09/10 05:32:45;;;;;;;26.97;14.68;;;;;;;12.57;80.68;100761.58;1727872;79;25924;-80
2021/09/10 05:35:14;;;;;;;25.43;15.10;;;;;;;12.66;80.72;100761.75;1742109;79;25722;-79
2021/09/10 05:37:41;;;;;;;21.42;14.45;;;;;;;12.76;81.18;100764.91;1705951;82;25935;-79
2021/09/10 05:40:10;;;;;;;24.23;15.03;;;;;;;12.86;81.20;100759.50;1710829;82;26475;-80
2021/09/10 05:42:38;;;;;;;20.52;15.32;;;;;;;12.96;81.17;100765.34;1693370;83;27176;-80
2021/09/10 05:45:08;;;;;;;27.32;16.55;;;;;;;13.05;81.33;100768.22;1677356;83;26020;-80
2021/09/10 05:47:38;;;;;;;18.80;14.07;;;;;;;13.17;81.24;100762.28;1687228;83;26662;-80
2021/09/10 05:50:05;;;;;;;21.90;14.03;;;;;;;13.28;81.39;100771.14;1703190;83;25816;-80
2021/09/10 05:52:32;;;;;;;22.48;14.93;;;;;;;13.40;81.64;100760.95;1705696;83;26486;-80
2021/09/10 05:54:59;;;;;;;19.62;13.90;;;;;;;13.53;81.56;100768.23;1697849;83;27484;-80
2021/09/10 05:57:26;;;;;;;20.75;14.05;;;;;;;13.63;81.65;100770.02;1695313;83;25769;-80
2021/09/10 05:59:53;;;;;;;21.17;14.87;;;;;;;13.77;81.91;100771.74;1713610;83;25828;-80
2021/09/10 06:02:22;;;;;;;24.98;14.65;;;;;;;13.89;81.96;100774.98;1689881;83;26727;-79
2021/09/10 06:04:48;;;;;;;23.50;14.50;;;;;;;14.04;81.92;100775.30;1645791;83;26493;-80
2021/09/10 06:07:15;;;;;;;21.85;14.25;;;;;;;14.15;81.89;100774.70;1720092;81;27552;-79
2021/09/10 06:09:42;;;;;;;21.50;14.20;;;;;;;14.28;81.75;100774.20;1707270;83;25852;-80
2021/09/10 06:12:10;;;;;;;19.70;14.07;;;;;;;14.39;81.58;100776.83;1708283;81;25829;-80
2021/09/10 06:14:37;;;;;;;22.05;14.15;;;;;;;14.52;81.66;100778.19;1679512;83;26029;-80
2021/09/10 06:17:04;;;;;;;18.35;14.03;;;;;;;14.64;81.74;100774.65;1716960;81;25869;-79
2021/09/10 06:19:31;;;;;;;18.73;13.75;;;;;;;14.77;81.68;100781.89;1707712;83;27506;-80
2021/09/10 06:21:58;;;;;;;19.75;13.03;;;;;;;14.89;81.73;100778.85;1714528;81;26652;-80
2021/09/10 06:24:25;;;;;;;20.55;13.15;;;;;;;15.05;81.71;100787.86;1659596;84;25870;-80
2021/09/10 06:26:52;;;;;;;18.55;12.85;;;;;;;15.17;81.37;100781.28;1690106;83;25883;-80
2021/09/10 06:29:19;;;;;;;28.87;13.30;;;;;;;15.30;81.26;100783.42;1713161;83;25884;-80
2021/09/10 06:31:49;;;;;;;19.48;12.82;;;;;;;15.43;80.42;100778.53;1722140;81;27589;-80
2021/09/10 06:34:20;;;;;;;20.02;11.88;;;;;;;15.55;80.25;100784.06;1643364;83;25903;-79
2021/09/10 06:36:44;;;;;;;16.57;12.10;;;;;;;15.65;79.70;100781.75;1713114;82;25848;-78
2021/09/10 06:39:11;;;;;;;17.73;13.13;;;;;;;15.78;79.45;100784.39;1728223;81;25808;-78
2021/09/10 06:41:38;;;;;;;18.32;12.73;;;;;;;15.88;78.79;100786.09;1714914;80;25792;-78
2021/09/10 06:44:05;;;;;;;17.20;12.23;;;;;;;15.96;78.62;100782.61;1708700;81;28220;-78
2021/09/10 06:46:32;;;;;;;16.48;12.25;;;;;;;16.08;78.66;100786.27;1728658;80;25832;-78
2021/09/10 06:48:59;;;;;;;16.62;11.45;;;;;;;16.19;77.86;100790.98;1734196;80;25832;-77
2021/09/10 06:51:27;;;;;;;13.83;11.25;;;;;;;16.29;77.69;100795.92;1766971;80;25852;-78
2021/09/10 06:53:54;;;;;;;14.65;10.78;;;;;;;16.40;77.32;100791.67;1712074;79;26330;-78
2021/09/10 06:56:21;;;;;;;21.05;11.20;;;;;;;16.51;76.96;100797.77;1774707;79;27555;-78
2021/09/10 06:58:48;;;;;;;18.20;11.00;;;;;;;16.61;76.47;100796.22;1760457;80;26552;-78
2021/09/10 07:01:15;;;;;;;19.05;12.13;;;;;;;16.71;76.16;100797.05;1768509;79;25765;-77
2021/09/10 07:03:42;;;;;;;17.73;10.28;;;;;;;16.81;75.73;100800.91;1656513;82;26437;-77
2021/09/10 07:06:09;;;;;;;18.00;11.53;;;;;;;16.89;75.39;100798.45;1682335;82;25338;-78
2021/09/10 07:08:36;;;;;;;20.43;11.88;;;;;;;16.99;74.94;100794.70;1704327;82;28339;-77
2021/09/10 07:11:03;;;;;;;16.27;11.68;;;;;;;17.12;74.64;100796.44;1703609;82;25841;-77
2021/09/10 07:13:31;;;;;;;21.15;11.68;;;;;;;17.22;74.51;100798.09;1690762;82;25780;-79
2021/09/10 07:15:58;;;;;;;17.95;9.95;;;;;;;17.32;73.91;100806.55;1700991;82;26499;-78
2021/09/10 07:18:25;;;;;;;19.73;9.55;;;;;;;17.41;73.48;100799.23;1701859;82;25786;-78
2021/09/10 07:20:52;;;;;;;18.62;10.40;;;;;;;17.49;73.09;100800.82;1682799;83;27206;-78
2021/09/10 07:23:19;;;;;;;19.30;10.03;;;;;;;17.59;72.97;100804.68;1656439;82;26415;-78
2021/09/10 07:25:46;;;;;;;16.52;10.08;;;;;;;17.68;72.39;100807.91;1681143;82;25339;-79
2021/09/10 07:28:13;;;;;;;11.95;8.88;;;;;;;17.76;71.99;100812.17;1731776;82;25731;-78
2021/09/10 07:30:40;;;;;;;16.80;9.35;;;;;;;17.86;71.93;100807.86;1728207;82;25811;-78
2021/09/10 07:33:07;;;;;;;18.55;9.25;;;;;;;17.98;71.85;100802.50;1631334;83;28169;-78
2021/09/10 07:35:34;;;;;;;17.17;9.70;;;;;;;18.06;71.33;100807.59;1716732;81;25410;-78
2021/09/10 07:38:01;;;;;;;15.05;9.83;;;;;;;18.14;71.14;100808.61;1726721;80;25760;-77
2021/09/10 07:40:28;;;;;;;19.25;9.58;;;;;;;18.24;71.08;100810.26;1703471;82;26485;-78
2021/09/10 07:42:55;;;;;;;14.07;9.33;;;;;;;18.33;70.29;100809.67;1686077;81;25801;-78
2021/09/10 07:45:23;;;;;;;18.57;10.68;;;;;;;18.43;70.22;100811.84;1656645;82;27554;-78
2021/09/10 07:47:50;;;;;;;14.23;9.05;;;;;;;18.52;70.11;100813.72;1698935;82;26709;-78
2021/09/10 07:50:17;;;;;;;13.70;8.63;;;;;;;18.63;69.91;100822.38;1689359;84;25860;-78
2021/09/10 07:52:44;;;;;;;11.88;8.00;;;;;;;18.73;69.21;100819.41;1701313;82;26446;-79
2021/09/10 07:55:11;;;;;;;17.30;8.63;;;;;;;18.80;69.01;100822.81;1703411;82;25857;-78
2021/09/10 07:57:38;;;;;;;16.37;10.43;;;;;;;18.89;68.54;100824.13;1702881;82;27435;-78
2021/09/10 08:00:07;;;;;;;13.18;8.35;;;;;;;18.98;68.42;100830.86;1684108;82;25849;-79
2021/09/10 08:02:37;;;;;;;15.80;9.53;;;;;;;19.06;67.86;100831.86;1712782;82;25826;-78
2021/09/10 08:05:06;;;;;;;14.10;8.50;;;;;;;19.14;67.59;100821.98;1701982;82;25893;-79
2021/09/10 08:07:33;;;;;;;17.82;8.53;;;;;;;19.25;67.81;100832.55;1727779;82;25892;-78
2021/09/10 08:10:00;;;;;;;14.50;8.33;;;;;;;19.35;67.44;100836.06;1703808;82;27198;-78
2021/09/10 08:12:28;;;;;;;12.03;8.50;;;;;;;19.45;67.11;100834.92;1657809;82;25899;-78
2021/09/10 08:14:56;;;;;;;16.65;7.85;;;;;;;19.51;66.87;100828.00;1675683;82;25782;-78
2021/09/10 08:17:23;;;;;;;16.85;8.53;;;;;;;19.60;66.28;100824.38;1665136;85;26526;-78
2021/09/10 08:19:50;;;;;;;11.83;6.78;;;;;;;19.69;65.19;100822.42;1727885;81;26015;-78
2021/09/10 08:22:19;;;;;;;12.37;8.15;;;;;;;19.77;65.67;100819.84;1643591;82;27618;-78
2021/09/10 08:24:47;;;;;;;12.80;8.20;;;;;;;19.84;65.21;100818.65;1681998;82;25922;-78
2021/09/10 08:27:14;;;;;;;15.95;8.08;;;;;;;19.91;64.05;100816.59;1707424;82;25751;-78
2021/09/10 08:29:41;;;;;;;11.95;7.62;;;;;;;19.98;63.96;100821.36;1684310;82;26702;-78
2021/09/10 08:32:08;;;;;;;14.83;7.72;;;;;;;20.04;64.50;100818.75;1671557;82;25826;-78
2021/09/10 08:34:35;;;;;;;11.50;8.55;;;;;;;20.14;64.75;100809.41;1682604;82;27587;-78
2021/09/10 08:37:02;;;;;;;18.02;8.78;;;;;;;20.23;64.27;100815.58;1705347;82;25904;-78
2021/09/10 08:39:29;;;;;;;12.55;8.03;;;;;;;20.29;64.38;100809.72;1687410;82;25865;-78
2021/09/10 08:41:57;;;;;;;13.15;7.67;;;;;;;20.38;64.24;100809.61;1745179;80;26504;-78
2021/09/10 08:44:27;;;;;;;12.03;7.97;;;;;;;20.46;64.06;100809.20;1731578;81;25774;-78
2021/09/10 08:46:54;;;;;;;13.85;8.75;;;;;;;20.56;64.22;100803.92;1732260;82;27516;-79
2021/09/10 08:49:21;;;;;;;10.72;7.37;;;;;;;20.63;63.40;100805.95;1704144;82;25940;-78
2021/09/10 08:51:48;;;;;;;12.98;7.55;;;;;;;20.69;63.35;100809.04;1689008;82;26505;-80
2021/09/10 08:54:17;;;;;;;16.77;7.67;;;;;;;20.78;63.81;100809.45;1684555;83;26590;-79
2021/09/10 08:56:44;;;;;;;11.57;7.58;;;;;;;20.87;63.38;100809.33;1731611;81;25757;-79
2021/09/10 08:59:18;;;;;;;13.53;9.45;;;;;;;20.98;63.29;100811.14;1684902;83;28169;-79
2021/09/10 09:01:54;;;;;;;14.50;8.90;;;;;;;21.04;62.57;100809.60;1703163;82;25705;-79
2021/09/10 09:04:23;;;;;;;18.62;7.83;;;;;;;21.14;62.40;100807.58;1703127;82;25855;-78
2021/09/10 09:06:54;;;;;;;12.15;7.78;;;;;;;21.22;62.55;100808.50;1731523;82;25767;-79
2021/09/10 09:09:41;;;;;;;15.10;7.53;;;;;;;21.32;63.07;100815.48;1703819;82;25865;-79
2021/09/10 09:12:24;;;;;;;12.88;7.60;;;;;;;21.38;62.13;100809.02;1641784;82;26614;-79
2021/09/10 09:14:59;;;;;;;11.45;7.45;;;;;;;21.48;62.53;100809.14;1731513;81;26141;-79
2021/09/10 09:17:35;;;;;;;11.88;7.42;;;;;;;21.58;61.67;100808.45;1723431;82;26543;-79
2021/09/10 09:20:22;;;;;;;13.35;7.35;;;;;;;21.65;61.68;100812.63;1705063;82;26386;-79
2021/09/10 09:23:07;;;;;;;12.00;6.75;;;;;;;21.73;61.20;100811.34;1667475;83;26558;-79
2021/09/10 09:25:42;;;;;;;9.18;5.92;;;;;;;21.80;61.44;100807.36;1724596;82;27582;-79
2021/09/10 09:28:31;;;;;;;13.93;7.00;;;;;;;21.88;61.01;100809.66;1685125;82;25946;-78
2021/09/10 09:31:12;;;;;;;13.32;6.83;;;;;;;21.94;60.33;100801.80;1729303;82;25821;-79
2021/09/10 09:33:44;;;;;;;13.58;7.40;;;;;;;22.02;60.10;100806.00;1678375;82;26427;-79
2021/09/10 09:36:15;;;;;;;13.80;6.97;;;;;;;22.08;59.16;100802.23;1732573;82;25835;-78
2021/09/10 09:38:44;;;;;;;11.68;6.83;;;;;;;22.16;60.04;100808.59;1731634;82;27467;-78
2021/09/10 09:41:18;;;;;;;15.48;6.58;;;;;;;22.26;59.57;100803.25;1691324;82;25766;-79
2021/09/10 09:43:54;;;;;;;11.43;6.17;;;;;;;22.31;59.30;100801.08;1666849;83;25845;-79
2021/09/10 09:46:22;;;;;;;9.80;6.22;;;;;;;22.39;59.31;100803.36;1698793;82;26736;-79
2021/09/10 09:48:51;;;;;;;12.25;6.53;;;;;;;22.46;58.98;100802.59;1713597;82;25969;-79
2021/09/10 09:51:21;;;;;;;9.15;6.35;;;;;;;22.51;58.58;100798.02;1683570;84;27612;-79
2021/09/10 09:53:49;;;;;;;14.13;6.35;;;;;;;22.56;58.20;100801.33;1665927;82;25905;-80
2021/09/10 09:56:16;;;;;;;12.00;6.75;;;;;;;22.62;58.46;100798.41;1702023;84;25816;-78
2021/09/10 09:58:44;;;;;;;11.28;6.00;;;;;;;22.69;58.69;100798.99;1730360;82;25806;-79
2021/09/10 10:01:12;;;;;;;9.33;6.33;;;;;;;22.79;58.08;100794.17;1687998;82;25319;-79
2021/09/10 10:03:40;;;;;;;10.30;6.37;;;;;;;22.87;57.75;100795.87;1706755;83;28218;-79
2021/09/10 10:06:24;;;;;;;7.00;5.65;;;;;;;22.97;57.91;100795.09;1723234;79;26150;-79
2021/09/10 10:09:14;;;;;;;7.75;5.42;;;;;;;23.08;57.65;100795.98;1701886;84;25639;-79
2021/09/10 10:11:49;;;;;;;8.28;5.72;;;;;;;23.17;56.70;100801.23;1678419;82;25978;-79
2021/09/10 10:14:32;;;;;;;10.28;5.17;;;;;;;23.26;55.56;100795.02;1685986;82;25815;-79
2021/09/10 10:17:02;;;;;;;11.85;5.00;;;;;;;23.31;55.51;100793.66;1727129;82;27507;-79
2021/09/10 10:19:40;;;;;;;10.88;5.25;;;;;;;23.38;55.98;100796.19;1705737;82;25873;-79
2021/09/10 10:22:10;;;;;;;7.12;4.72;;;;;;;23.45;55.99;100786.67;1704904;82;25780;-79
2021/09/10 10:24:56;;;;;;;10.13;5.37;;;;;;;23.52;55.28;100783.13;1680973;82;25828;-79
2021/09/10 10:27:46;;;;;;;11.05;4.80;;;;;;;23.61;55.03;100785.63;1702638;84;25751;-80
2021/09/10 10:30:21;;;;;;;9.70;5.45;;;;;;;23.68;54.74;100781.28;1700717;84;27600;-79
2021/09/10 10:32:51;;;;;;;9.05;5.62;;;;;;;23.74;54.51;100782.39;1702510;84;26489;-79
2021/09/10 10:35:39;;;;;;;8.07;4.93;;;;;;;23.83;54.47;100784.06;1666895;83;25795;-79
2021/09/10 10:38:11;;;;;;;12.15;5.35;;;;;;;23.87;53.52;100789.27;1731634;82;26557;-79
2021/09/10 10:40:42;;;;;;;10.30;5.70;;;;;;;23.91;53.56;100787.63;1727281;82;25887;-79
2021/09/10 10:43:24;;;;;;;7.10;4.75;;;;;;;23.94;53.51;100780.27;1668258;81;28152;-80
2021/09/10 10:46:07;;;;;;;6.17;4.25;;;;;;;23.98;53.40;100778.63;1700468;82;25817;-79
2021/09/10 10:48:44;;;;;;;11.20;5.40;;;;;;;24.04;53.00;100778.08;1704702;83;25900;-79
2021/09/10 10:51:22;;;;;;;6.60;4.72;;;;;;;24.12;52.93;100770.19;1732273;82;26534;-79
2021/09/10 10:54:00;;;;;;;9.38;4.75;;;;;;;24.18;52.82;100769.13;1728064;82;25751;-79
2021/09/10 10:56:39;;;;;;;6.87;4.80;;;;;;;24.26;53.15;100771.31;1680238;81;27407;-79
2021/09/10 10:59:21;;;;;;;9.48;5.17;;;;;;;24.34;52.96;100766.66;1728236;82;27551;-79
2021/09/10 11:02:25;;;;;;;11.75;5.05;;;;;;;24.46;52.76;100774.62;1697815;82;25336;-80
2021/09/10 11:05:04;;;;;;;9.08;4.55;;;;;;;24.52;52.94;100766.67;1678299;82;25816;-80
2021/09/10 11:07:32;;;;;;;9.05;5.40;;;;;;;24.57;52.28;100767.22;1680115;82;25765;-79
2021/09/10 11:10:09;;;;;;;8.03;4.60;;;;;;;24.60;51.58;100772.95;1728257;82;27444;-79
2021/09/10 11:12:39;;;;;;;8.00;4.80;;;;;;;24.67;51.85;100768.58;1729175;82;26577;-79
2021/09/10 11:15:26;;;;;;;7.80;4.55;;;;;;;24.75;51.58;100768.05;1701830;82;26004;-80
2021/09/10 11:18:09;;;;;;;8.28;4.33;;;;;;;24.79;50.83;100771.88;1680084;82;25652;-79
2021/09/10 11:20:48;;;;;;;7.05;3.90;;;;;;;24.83;50.98;100769.67;1731900;81;25834;-79